sensor_id;sensor_type;location;lat;lon;timestamp;P1;durP1;ratioP1;P2;durP2;ratioP2
45548;SDS011;31270;48.328;10.096;2023-05-14T00:00:22;14.20;;;10.40;;
45548;SDS011;31270;48.328;10.096;2023-05-14T00:02:48;16.00;;;10.30;;
45548;SDS011;31270;48.328;10.096;2023-05-14T00:05:14;16.07;;;10.37;;
45548;SDS011;31270;48.328;10.096;2023-05-14T00:07:39;13.77;;;10.73;;
45548;SDS011;31270;48.328;10.096;2023-05-14T00:10:05;17.00;;;10.93;;
45548;SDS011;31270;48.328;10.096;2023-05-14T00:12:31;16.40;;;11.30;;
45548;SDS011;31270;48.328;10.096;2023-05-14T00:14:56;15.90;;;11.00;;
45548;SDS011;31270;48.328;10.096;2023-05-14T00:17:22;16.73;;;10.93;;
45548;SDS011;31270;48.328;10.096;2023-05-14T00:19:48;16.03;;;11.27;;
45548;SDS011;31270;48.328;10.096;2023-05-14T00:22:14;17.10;;;11.83;;
45548;SDS011;31270;48.328;10.096;2023-05-14T00:24:39;17.20;;;11.83;;
45548;SDS011;31270;48.328;10.096;2023-05-14T00:27:06;17.13;;;11.93;;
45548;SDS011;31270;48.328;10.096;2023-05-14T00:29:32;17.03;;;11.47;;
45548;SDS011;31270;48.328;10.096;2023-05-14T00:31:57;16.00;;;11.10;;
45548;SDS011;31270;48.328;10.096;2023-05-14T00:34:23;16.43;;;11.53;;
45548;SDS011;31270;48.328;10.096;2023-05-14T00:36:49;17.63;;;11.43;;
45548;SDS011;31270;48.328;10.096;2023-05-14T00:39:15;19.13;;;11.90;;
45548;SDS011;31270;48.328;10.096;2023-05-14T00:41:42;18.33;;;12.17;;
45548;SDS011;31270;48.328;10.096;2023-05-14T00:44:07;20.50;;;12.37;;
45548;SDS011;31270;48.328;10.096;2023-05-14T00:46:33;21.50;;;12.33;;
45548;SDS011;31270;48.328;10.096;2023-05-14T00:48:58;21.03;;;13.00;;
45548;SDS011;31270;48.328;10.096;2023-05-14T00:51:24;16.20;;;11.33;;
45548;SDS011;31270;48.328;10.096;2023-05-14T00:53:51;19.07;;;12.60;;
45548;SDS011;31270;48.328;10.096;2023-05-14T00:56:17;18.80;;;12.97;;
45548;SDS011;31270;48.328;10.096;2023-05-14T00:58:43;17.10;;;12.03;;
45548;SDS011;31270;48.328;10.096;2023-05-14T01:01:09;19.20;;;13.17;;
45548;SDS011;31270;48.328;10.096;2023-05-14T01:03:36;18.10;;;13.00;;
45548;SDS011;31270;48.328;10.096;2023-05-14T01:06:16;19.60;;;13.63;;
45548;SDS011;31270;48.328;10.096;2023-05-14T01:11:50;17.87;;;12.43;;
45548;SDS011;31270;48.328;10.096;2023-05-14T01:14:30;20.97;;;12.63;;
45548;SDS011;31270;48.328;10.096;2023-05-14T01:17:05;20.40;;;13.27;;
45548;SDS011;31270;48.328;10.096;2023-05-14T01:19:35;18.77;;;13.20;;
45548;SDS011;31270;48.328;10.096;2023-05-14T01:22:08;20.40;;;13.33;;
45548;SDS011;31270;48.328;10.096;2023-05-14T01:24:35;18.70;;;12.50;;
45548;SDS011;31270;48.328;10.096;2023-05-14T01:27:45;19.53;;;13.53;;
45548;SDS011;31270;48.328;10.096;2023-05-14T01:32:35;19.03;;;12.53;;
45548;SDS011;31270;48.328;10.096;2023-05-14T01:35:03;19.27;;;12.80;;
45548;SDS011;31270;48.328;10.096;2023-05-14T01:37:29;18.10;;;12.80;;
45548;SDS011;31270;48.328;10.096;2023-05-14T01:39:57;19.27;;;12.67;;
45548;SDS011;31270;48.328;10.096;2023-05-14T01:42:23;18.40;;;12.83;;
45548;SDS011;31270;48.328;10.096;2023-05-14T01:44:50;18.93;;;12.60;;
45548;SDS011;31270;48.328;10.096;2023-05-14T01:47:15;19.73;;;12.90;;
45548;SDS011;31270;48.328;10.096;2023-05-14T01:49:41;19.60;;;12.37;;
45548;SDS011;31270;48.328;10.096;2023-05-14T01:52:07;19.80;;;13.37;;
45548;SDS011;31270;48.328;10.096;2023-05-14T01:54:33;20.03;;;13.93;;
45548;SDS011;31270;48.328;10.096;2023-05-14T01:56:58;20.03;;;12.87;;
45548;SDS011;31270;48.328;10.096;2023-05-14T01:59:24;20.10;;;13.00;;
45548;SDS011;31270;48.328;10.096;2023-05-14T02:01:50;18.73;;;12.73;;
45548;SDS011;31270;48.328;10.096;2023-05-14T02:04:15;20.10;;;12.80;;
45548;SDS011;31270;48.328;10.096;2023-05-14T02:06:41;18.17;;;12.60;;
45548;SDS011;31270;48.328;10.096;2023-05-14T02:09:09;21.73;;;14.40;;
45548;SDS011;31270;48.328;10.096;2023-05-14T02:11:35;20.93;;;13.97;;
45548;SDS011;31270;48.328;10.096;2023-05-14T02:14:01;19.67;;;13.40;;
45548;SDS011;31270;48.328;10.096;2023-05-14T02:16:26;21.10;;;14.00;;
45548;SDS011;31270;48.328;10.096;2023-05-14T02:18:52;19.27;;;13.13;;
45548;SDS011;31270;48.328;10.096;2023-05-14T02:21:18;19.97;;;13.83;;
45548;SDS011;31270;48.328;10.096;2023-05-14T02:23:44;20.40;;;13.63;;
45548;SDS011;31270;48.328;10.096;2023-05-14T02:26:10;22.67;;;15.30;;
45548;SDS011;31270;48.328;10.096;2023-05-14T02:28:36;21.93;;;14.47;;
45548;SDS011;31270;48.328;10.096;2023-05-14T02:31:02;22.50;;;14.83;;
45548;SDS011;31270;48.328;10.096;2023-05-14T02:33:28;23.07;;;14.87;;
45548;SDS011;31270;48.328;10.096;2023-05-14T02:35:53;20.27;;;14.47;;
45548;SDS011;31270;48.328;10.096;2023-05-14T02:38:19;22.53;;;14.17;;
45548;SDS011;31270;48.328;10.096;2023-05-14T02:40:45;22.40;;;14.17;;
45548;SDS011;31270;48.328;10.096;2023-05-14T02:43:10;27.90;;;15.23;;
45548;SDS011;31270;48.328;10.096;2023-05-14T02:45:36;24.77;;;14.00;;
45548;SDS011;31270;48.328;10.096;2023-05-14T02:48:01;23.13;;;14.77;;
45548;SDS011;31270;48.328;10.096;2023-05-14T02:50:27;24.00;;;14.33;;
45548;SDS011;31270;48.328;10.096;2023-05-14T02:52:53;22.90;;;15.53;;
45548;SDS011;31270;48.328;10.096;2023-05-14T02:55:18;23.23;;;14.57;;
45548;SDS011;31270;48.328;10.096;2023-05-14T02:57:45;21.13;;;14.77;;
45548;SDS011;31270;48.328;10.096;2023-05-14T03:00:11;19.87;;;13.87;;
45548;SDS011;31270;48.328;10.096;2023-05-14T03:02:37;21.03;;;13.93;;
45548;SDS011;31270;48.328;10.096;2023-05-14T03:05:02;20.67;;;13.90;;
45548;SDS011;31270;48.328;10.096;2023-05-14T03:07:28;18.47;;;12.80;;
45548;SDS011;31270;48.328;10.096;2023-05-14T03:09:54;20.80;;;14.07;;
45548;SDS011;31270;48.328;10.096;2023-05-14T03:12:20;20.17;;;13.50;;
45548;SDS011;31270;48.328;10.096;2023-05-14T03:14:45;19.80;;;13.80;;
45548;SDS011;31270;48.328;10.096;2023-05-14T03:17:11;20.77;;;13.73;;
45548;SDS011;31270;48.328;10.096;2023-05-14T03:19:38;21.07;;;13.67;;
45548;SDS011;31270;48.328;10.096;2023-05-14T03:22:03;21.23;;;14.33;;
45548;SDS011;31270;48.328;10.096;2023-05-14T03:24:29;23.43;;;14.57;;
45548;SDS011;31270;48.328;10.096;2023-05-14T03:26:55;21.87;;;13.27;;
45548;SDS011;31270;48.328;10.096;2023-05-14T03:29:21;17.60;;;12.67;;
45548;SDS011;31270;48.328;10.096;2023-05-14T03:31:47;18.47;;;13.30;;
45548;SDS011;31270;48.328;10.096;2023-05-14T03:34:14;19.47;;;13.73;;
45548;SDS011;31270;48.328;10.096;2023-05-14T03:36:40;18.13;;;13.20;;
45548;SDS011;31270;48.328;10.096;2023-05-14T03:39:06;20.83;;;13.67;;
45548;SDS011;31270;48.328;10.096;2023-05-14T03:41:33;21.83;;;14.37;;
45548;SDS011;31270;48.328;10.096;2023-05-14T03:44:00;20.83;;;13.50;;
45548;SDS011;31270;48.328;10.096;2023-05-14T03:46:25;19.73;;;14.17;;
45548;SDS011;31270;48.328;10.096;2023-05-14T03:48:51;22.33;;;13.00;;
45548;SDS011;31270;48.328;10.096;2023-05-14T03:51:17;18.77;;;12.80;;
45548;SDS011;31270;48.328;10.096;2023-05-14T03:53:43;18.47;;;12.63;;
45548;SDS011;31270;48.328;10.096;2023-05-14T03:56:10;18.33;;;13.30;;
45548;SDS011;31270;48.328;10.096;2023-05-14T03:58:36;20.07;;;13.73;;
45548;SDS011;31270;48.328;10.096;2023-05-14T04:01:01;17.90;;;12.10;;
45548;SDS011;31270;48.328;10.096;2023-05-14T04:03:27;19.93;;;13.13;;
45548;SDS011;31270;48.328;10.096;2023-05-14T04:05:52;18.27;;;12.57;;
45548;SDS011;31270;48.328;10.096;2023-05-14T04:08:18;22.40;;;12.73;;
45548;SDS011;31270;48.328;10.096;2023-05-14T04:10:44;19.97;;;13.50;;
45548;SDS011;31270;48.328;10.096;2023-05-14T04:13:11;22.33;;;14.17;;
45548;SDS011;31270;48.328;10.096;2023-05-14T04:15:36;21.00;;;13.67;;
45548;SDS011;31270;48.328;10.096;2023-05-14T04:18:03;20.97;;;14.13;;
45548;SDS011;31270;48.328;10.096;2023-05-14T04:20:29;21.47;;;14.10;;
45548;SDS011;31270;48.328;10.096;2023-05-14T04:22:55;23.10;;;14.70;;
45548;SDS011;31270;48.328;10.096;2023-05-14T04:25:21;25.83;;;15.03;;
45548;SDS011;31270;48.328;10.096;2023-05-14T04:27:48;23.13;;;14.80;;
45548;SDS011;31270;48.328;10.096;2023-05-14T04:30:14;20.70;;;14.23;;
45548;SDS011;31270;48.328;10.096;2023-05-14T04:32:40;20.40;;;15.00;;
45548;SDS011;31270;48.328;10.096;2023-05-14T04:35:06;26.07;;;15.77;;
45548;SDS011;31270;48.328;10.096;2023-05-14T04:37:33;23.23;;;14.80;;
45548;SDS011;31270;48.328;10.096;2023-05-14T04:39:58;24.97;;;15.70;;
45548;SDS011;31270;48.328;10.096;2023-05-14T04:42:24;25.43;;;15.93;;
45548;SDS011;31270;48.328;10.096;2023-05-14T04:44:50;23.80;;;16.20;;
45548;SDS011;31270;48.328;10.096;2023-05-14T04:47:16;23.57;;;14.97;;
45548;SDS011;31270;48.328;10.096;2023-05-14T04:49:41;24.60;;;16.20;;
45548;SDS011;31270;48.328;10.096;2023-05-14T04:52:07;22.03;;;15.63;;
45548;SDS011;31270;48.328;10.096;2023-05-14T04:54:33;26.93;;;15.87;;
45548;SDS011;31270;48.328;10.096;2023-05-14T04:56:58;25.33;;;15.70;;
45548;SDS011;31270;48.328;10.096;2023-05-14T04:59:28;24.23;;;15.90;;
45548;SDS011;31270;48.328;10.096;2023-05-14T05:01:54;24.00;;;15.47;;
45548;SDS011;31270;48.328;10.096;2023-05-14T05:04:20;24.73;;;15.20;;
45548;SDS011;31270;48.328;10.096;2023-05-14T05:06:48;24.90;;;16.60;;
45548;SDS011;31270;48.328;10.096;2023-05-14T05:09:14;24.73;;;15.67;;
45548;SDS011;31270;48.328;10.096;2023-05-14T05:11:41;25.37;;;17.27;;
45548;SDS011;31270;48.328;10.096;2023-05-14T05:14:06;27.83;;;17.67;;
45548;SDS011;31270;48.328;10.096;2023-05-14T05:16:33;26.27;;;15.70;;
45548;SDS011;31270;48.328;10.096;2023-05-14T05:18:58;26.50;;;16.67;;
45548;SDS011;31270;48.328;10.096;2023-05-14T05:21:24;24.60;;;15.97;;
45548;SDS011;31270;48.328;10.096;2023-05-14T05:23:50;23.37;;;16.27;;
45548;SDS011;31270;48.328;10.096;2023-05-14T05:26:16;30.40;;;16.43;;
45548;SDS011;31270;48.328;10.096;2023-05-14T05:28:42;24.83;;;15.87;;
45548;SDS011;31270;48.328;10.096;2023-05-14T05:31:08;22.43;;;16.23;;
45548;SDS011;31270;48.328;10.096;2023-05-14T05:33:34;23.70;;;15.50;;
45548;SDS011;31270;48.328;10.096;2023-05-14T05:35:59;27.07;;;16.73;;
45548;SDS011;31270;48.328;10.096;2023-05-14T05:38:25;22.67;;;16.63;;
45548;SDS011;31270;48.328;10.096;2023-05-14T05:40:51;26.83;;;17.57;;
45548;SDS011;31270;48.328;10.096;2023-05-14T05:43:17;24.00;;;16.33;;
45548;SDS011;31270;48.328;10.096;2023-05-14T05:45:43;25.30;;;16.60;;
45548;SDS011;31270;48.328;10.096;2023-05-14T05:48:10;26.47;;;17.47;;
45548;SDS011;31270;48.328;10.096;2023-05-14T05:50:36;24.30;;;17.13;;
45548;SDS011;31270;48.328;10.096;2023-05-14T05:53:02;30.03;;;18.43;;
45548;SDS011;31270;48.328;10.096;2023-05-14T05:55:28;24.80;;;16.60;;
45548;SDS011;31270;48.328;10.096;2023-05-14T05:57:54;25.67;;;17.00;;
45548;SDS011;31270;48.328;10.096;2023-05-14T06:00:20;21.90;;;15.90;;
45548;SDS011;31270;48.328;10.096;2023-05-14T06:02:47;23.77;;;15.67;;
45548;SDS011;31270;48.328;10.096;2023-05-14T06:05:13;24.77;;;16.30;;
45548;SDS011;31270;48.328;10.096;2023-05-14T06:07:38;25.70;;;16.30;;
45548;SDS011;31270;48.328;10.096;2023-05-14T06:10:04;23.67;;;16.53;;
45548;SDS011;31270;48.328;10.096;2023-05-14T06:12:30;24.53;;;16.97;;
45548;SDS011;31270;48.328;10.096;2023-05-14T06:14:56;24.90;;;17.33;;
45548;SDS011;31270;48.328;10.096;2023-05-14T06:17:25;23.93;;;16.70;;
45548;SDS011;31270;48.328;10.096;2023-05-14T06:19:51;24.97;;;16.87;;
45548;SDS011;31270;48.328;10.096;2023-05-14T06:22:17;24.07;;;16.77;;
45548;SDS011;31270;48.328;10.096;2023-05-14T06:24:43;24.13;;;17.00;;
45548;SDS011;31270;48.328;10.096;2023-05-14T06:27:11;24.27;;;17.43;;
45548;SDS011;31270;48.328;10.096;2023-05-14T06:29:37;23.70;;;16.13;;
45548;SDS011;31270;48.328;10.096;2023-05-14T06:32:03;26.20;;;17.37;;
45548;SDS011;31270;48.328;10.096;2023-05-14T06:34:29;22.53;;;16.50;;
45548;SDS011;31270;48.328;10.096;2023-05-14T06:36:55;24.87;;;17.40;;
45548;SDS011;31270;48.328;10.096;2023-05-14T06:39:21;25.03;;;17.27;;
45548;SDS011;31270;48.328;10.096;2023-05-14T06:41:48;25.50;;;16.90;;
45548;SDS011;31270;48.328;10.096;2023-05-14T06:44:14;26.13;;;16.03;;
45548;SDS011;31270;48.328;10.096;2023-05-14T06:46:41;27.40;;;17.13;;
45548;SDS011;31270;48.328;10.096;2023-05-14T06:49:07;22.77;;;15.47;;
45548;SDS011;31270;48.328;10.096;2023-05-14T06:51:33;23.07;;;15.77;;
45548;SDS011;31270;48.328;10.096;2023-05-14T06:53:58;22.97;;;15.10;;
45548;SDS011;31270;48.328;10.096;2023-05-14T06:56:24;23.23;;;15.53;;
45548;SDS011;31270;48.328;10.096;2023-05-14T06:58:50;22.47;;;15.13;;
45548;SDS011;31270;48.328;10.096;2023-05-14T07:01:15;24.70;;;16.33;;
45548;SDS011;31270;48.328;10.096;2023-05-14T07:03:42;25.07;;;16.13;;
45548;SDS011;31270;48.328;10.096;2023-05-14T07:06:08;21.00;;;15.70;;
45548;SDS011;31270;48.328;10.096;2023-05-14T07:08:34;22.40;;;15.43;;
45548;SDS011;31270;48.328;10.096;2023-05-14T07:11:00;21.00;;;14.57;;
45548;SDS011;31270;48.328;10.096;2023-05-14T07:13:26;20.43;;;14.33;;
45548;SDS011;31270;48.328;10.096;2023-05-14T07:15:52;22.87;;;15.17;;
45548;SDS011;31270;48.328;10.096;2023-05-14T07:18:20;21.47;;;14.93;;
45548;SDS011;31270;48.328;10.096;2023-05-14T07:20:46;19.23;;;14.27;;
45548;SDS011;31270;48.328;10.096;2023-05-14T07:23:12;20.73;;;14.43;;
45548;SDS011;31270;48.328;10.096;2023-05-14T07:25:37;21.20;;;14.43;;
45548;SDS011;31270;48.328;10.096;2023-05-14T07:28:03;18.27;;;14.20;;
45548;SDS011;31270;48.328;10.096;2023-05-14T07:30:29;20.17;;;14.20;;
45548;SDS011;31270;48.328;10.096;2023-05-14T07:32:54;18.93;;;14.03;;
45548;SDS011;31270;48.328;10.096;2023-05-14T07:35:20;21.93;;;14.30;;
45548;SDS011;31270;48.328;10.096;2023-05-14T07:37:46;17.37;;;13.20;;
45548;SDS011;31270;48.328;10.096;2023-05-14T07:40:13;19.33;;;14.13;;
45548;SDS011;31270;48.328;10.096;2023-05-14T07:42:39;17.00;;;12.67;;
45548;SDS011;31270;48.328;10.096;2023-05-14T07:45:05;18.07;;;13.73;;
45548;SDS011;31270;48.328;10.096;2023-05-14T07:47:31;18.53;;;13.37;;
45548;SDS011;31270;48.328;10.096;2023-05-14T07:49:58;16.77;;;12.67;;
45548;SDS011;31270;48.328;10.096;2023-05-14T07:52:23;16.87;;;12.23;;
45548;SDS011;31270;48.328;10.096;2023-05-14T07:54:50;16.77;;;10.97;;
45548;SDS011;31270;48.328;10.096;2023-05-14T07:57:16;16.10;;;11.50;;
45548;SDS011;31270;48.328;10.096;2023-05-14T07:59:42;15.77;;;12.13;;
45548;SDS011;31270;48.328;10.096;2023-05-14T08:02:07;14.47;;;11.33;;
45548;SDS011;31270;48.328;10.096;2023-05-14T08:04:35;15.23;;;11.33;;
45548;SDS011;31270;48.328;10.096;2023-05-14T08:07:00;13.97;;;11.13;;
45548;SDS011;31270;48.328;10.096;2023-05-14T08:09:26;16.10;;;12.53;;
45548;SDS011;31270;48.328;10.096;2023-05-14T08:11:52;14.23;;;11.20;;
45548;SDS011;31270;48.328;10.096;2023-05-14T08:14:17;16.90;;;12.20;;
45548;SDS011;31270;48.328;10.096;2023-05-14T08:16:43;17.53;;;12.63;;
45548;SDS011;31270;48.328;10.096;2023-05-14T08:19:09;15.73;;;12.37;;
45548;SDS011;31270;48.328;10.096;2023-05-14T08:21:34;15.93;;;12.00;;
45548;SDS011;31270;48.328;10.096;2023-05-14T08:24:00;16.97;;;11.70;;
45548;SDS011;31270;48.328;10.096;2023-05-14T08:26:25;16.27;;;12.63;;
45548;SDS011;31270;48.328;10.096;2023-05-14T08:28:52;23.37;;;15.77;;
45548;SDS011;31270;48.328;10.096;2023-05-14T08:31:18;20.67;;;14.57;;
45548;SDS011;31270;48.328;10.096;2023-05-14T08:33:44;17.67;;;13.27;;
45548;SDS011;31270;48.328;10.096;2023-05-14T08:36:10;16.50;;;12.70;;
45548;SDS011;31270;48.328;10.096;2023-05-14T08:38:35;14.13;;;11.07;;
45548;SDS011;31270;48.328;10.096;2023-05-14T08:41:01;14.80;;;10.83;;
45548;SDS011;31270;48.328;10.096;2023-05-14T08:44:05;14.43;;;10.63;;
45548;SDS011;31270;48.328;10.096;2023-05-14T08:46:33;15.57;;;11.27;;
45548;SDS011;31270;48.328;10.096;2023-05-14T08:49:09;14.80;;;11.63;;
45548;SDS011;31270;48.328;10.096;2023-05-14T08:51:43;14.87;;;10.80;;
45548;SDS011;31270;48.328;10.096;2023-05-14T08:54:12;13.40;;;10.80;;
45548;SDS011;31270;48.328;10.096;2023-05-14T08:56:42;14.50;;;10.30;;
45548;SDS011;31270;48.328;10.096;2023-05-14T08:59:09;12.37;;;10.03;;
45548;SDS011;31270;48.328;10.096;2023-05-14T09:01:36;13.80;;;10.27;;
45548;SDS011;31270;48.328;10.096;2023-05-14T09:04:03;12.97;;;9.93;;
45548;SDS011;31270;48.328;10.096;2023-05-14T09:06:33;14.63;;;10.17;;
45548;SDS011;31270;48.328;10.096;2023-05-14T09:09:02;13.93;;;10.50;;
45548;SDS011;31270;48.328;10.096;2023-05-14T09:11:29;13.77;;;11.00;;
45548;SDS011;31270;48.328;10.096;2023-05-14T09:13:54;13.80;;;11.00;;
45548;SDS011;31270;48.328;10.096;2023-05-14T09:16:20;11.87;;;9.90;;
45548;SDS011;31270;48.328;10.096;2023-05-14T09:18:47;13.03;;;10.90;;
45548;SDS011;31270;48.328;10.096;2023-05-14T09:21:13;12.73;;;10.23;;
45548;SDS011;31270;48.328;10.096;2023-05-14T09:23:43;14.20;;;11.43;;
45548;SDS011;31270;48.328;10.096;2023-05-14T09:26:09;15.67;;;12.73;;
45548;SDS011;31270;48.328;10.096;2023-05-14T09:28:39;15.73;;;11.57;;
45548;SDS011;31270;48.328;10.096;2023-05-14T09:31:08;14.10;;;11.70;;
45548;SDS011;31270;48.328;10.096;2023-05-14T09:33:33;17.33;;;12.90;;
45548;SDS011;31270;48.328;10.096;2023-05-14T09:36:00;15.40;;;11.63;;
45548;SDS011;31270;48.328;10.096;2023-05-14T09:38:29;13.87;;;11.83;;
45548;SDS011;31270;48.328;10.096;2023-05-14T09:40:59;15.10;;;11.93;;
45548;SDS011;31270;48.328;10.096;2023-05-14T09:43:25;16.40;;;11.67;;
45548;SDS011;31270;48.328;10.096;2023-05-14T09:45:51;14.03;;;11.70;;
45548;SDS011;31270;48.328;10.096;2023-05-14T09:48:17;17.13;;;11.60;;
45548;SDS011;31270;48.328;10.096;2023-05-14T09:50:44;14.93;;;11.50;;
45548;SDS011;31270;48.328;10.096;2023-05-14T09:53:11;13.30;;;10.67;;
45548;SDS011;31270;48.328;10.096;2023-05-14T09:55:38;12.73;;;10.53;;
45548;SDS011;31270;48.328;10.096;2023-05-14T09:58:04;14.23;;;11.57;;
45548;SDS011;31270;48.328;10.096;2023-05-14T10:00:30;15.70;;;11.50;;
45548;SDS011;31270;48.328;10.096;2023-05-14T10:02:56;14.57;;;10.77;;
45548;SDS011;31270;48.328;10.096;2023-05-14T10:05:23;12.13;;;10.47;;
45548;SDS011;31270;48.328;10.096;2023-05-14T10:07:50;12.20;;;9.97;;
45548;SDS011;31270;48.328;10.096;2023-05-14T10:10:19;12.03;;;10.17;;
45548;SDS011;31270;48.328;10.096;2023-05-14T10:12:52;12.57;;;9.53;;
45548;SDS011;31270;48.328;10.096;2023-05-14T10:18:33;11.77;;;8.77;;
45548;SDS011;31270;48.328;10.096;2023-05-14T10:21:04;10.33;;;9.13;;
45548;SDS011;31270;48.328;10.096;2023-05-14T10:23:30;12.40;;;8.77;;
45548;SDS011;31270;48.328;10.096;2023-05-14T10:25:56;9.77;;;8.13;;
45548;SDS011;31270;48.328;10.096;2023-05-14T10:28:24;11.83;;;8.43;;
45548;SDS011;31270;48.328;10.096;2023-05-14T10:30:50;9.97;;;8.00;;
45548;SDS011;31270;48.328;10.096;2023-05-14T10:33:16;8.77;;;7.77;;
45548;SDS011;31270;48.328;10.096;2023-05-14T10:38:35;8.80;;;7.90;;
45548;SDS011;31270;48.328;10.096;2023-05-14T10:41:04;8.70;;;7.73;;
45548;SDS011;31270;48.328;10.096;2023-05-14T10:43:39;9.87;;;7.67;;
45548;SDS011;31270;48.328;10.096;2023-05-14T10:46:05;10.67;;;7.53;;
45548;SDS011;31270;48.328;10.096;2023-05-14T10:48:33;8.87;;;7.97;;
45548;SDS011;31270;48.328;10.096;2023-05-14T10:51:01;9.63;;;7.03;;
45548;SDS011;31270;48.328;10.096;2023-05-14T10:53:34;8.73;;;6.90;;
45548;SDS011;31270;48.328;10.096;2023-05-14T10:56:03;7.38;;;6.63;;
45548;SDS011;31270;48.328;10.096;2023-05-14T10:58:41;9.68;;;7.93;;
45548;SDS011;31270;48.328;10.096;2023-05-14T11:01:09;8.20;;;7.35;;
45548;SDS011;31270;48.328;10.096;2023-05-14T11:03:40;7.97;;;7.13;;
45548;SDS011;31270;48.328;10.096;2023-05-14T11:06:07;8.30;;;7.10;;
45548;SDS011;31270;48.328;10.096;2023-05-14T11:08:35;7.40;;;6.60;;
45548;SDS011;31270;48.328;10.096;2023-05-14T11:11:03;8.13;;;6.50;;
45548;SDS011;31270;48.328;10.096;2023-05-14T11:13:30;8.38;;;6.00;;
45548;SDS011;31270;48.328;10.096;2023-05-14T11:15:58;7.38;;;6.68;;
45548;SDS011;31270;48.328;10.096;2023-05-14T11:18:28;7.45;;;6.47;;
45548;SDS011;31270;48.328;10.096;2023-05-14T11:20:59;8.60;;;6.97;;
45548;SDS011;31270;48.328;10.096;2023-05-14T11:23:25;7.55;;;6.45;;
45548;SDS011;31270;48.328;10.096;2023-05-14T11:25:52;8.00;;;6.60;;
45548;SDS011;31270;48.328;10.096;2023-05-14T11:28:20;8.55;;;6.25;;
45548;SDS011;31270;48.328;10.096;2023-05-14T11:30:50;7.93;;;7.13;;
45548;SDS011;31270;48.328;10.096;2023-05-14T11:33:16;7.28;;;6.57;;
45548;SDS011;31270;48.328;10.096;2023-05-14T11:35:43;9.18;;;6.97;;
45548;SDS011;31270;48.328;10.096;2023-05-14T11:38:14;7.38;;;6.55;;
45548;SDS011;31270;48.328;10.096;2023-05-14T11:40:50;8.07;;;6.25;;
45548;SDS011;31270;48.328;10.096;2023-05-14T11:43:20;7.78;;;6.97;;
45548;SDS011;31270;48.328;10.096;2023-05-14T11:45:50;9.07;;;6.88;;
45548;SDS011;31270;48.328;10.096;2023-05-14T11:48:18;8.52;;;6.80;;
45548;SDS011;31270;48.328;10.096;2023-05-14T11:50:46;8.05;;;6.25;;
45548;SDS011;31270;48.328;10.096;2023-05-14T11:53:16;7.25;;;6.50;;
45548;SDS011;31270;48.328;10.096;2023-05-14T11:55:49;7.00;;;6.30;;
45548;SDS011;31270;48.328;10.096;2023-05-14T11:58:16;9.32;;;6.53;;
45548;SDS011;31270;48.328;10.096;2023-05-14T12:00:45;7.78;;;6.93;;
45548;SDS011;31270;48.328;10.096;2023-05-14T12:03:15;7.25;;;6.55;;
45548;SDS011;31270;48.328;10.096;2023-05-14T12:05:53;7.30;;;6.60;;
45548;SDS011;31270;48.328;10.096;2023-05-14T12:08:29;7.80;;;6.47;;
45548;SDS011;31270;48.328;10.096;2023-05-14T12:10:58;7.18;;;6.40;;
45548;SDS011;31270;48.328;10.096;2023-05-14T12:13:28;7.47;;;6.35;;
45548;SDS011;31270;48.328;10.096;2023-05-14T12:15:56;7.47;;;6.75;;
45548;SDS011;31270;48.328;10.096;2023-05-14T12:18:23;6.18;;;5.65;;
45548;SDS011;31270;48.328;10.096;2023-05-14T12:20:50;7.68;;;6.18;;
45548;SDS011;31270;48.328;10.096;2023-05-14T12:23:16;6.35;;;5.75;;
45548;SDS011;31270;48.328;10.096;2023-05-14T12:25:49;7.78;;;6.97;;
45548;SDS011;31270;48.328;10.096;2023-05-14T12:28:16;6.65;;;5.57;;
45548;SDS011;31270;48.328;10.096;2023-05-14T12:30:46;6.80;;;6.10;;
45548;SDS011;31270;48.328;10.096;2023-05-14T12:33:12;6.50;;;5.68;;
45548;SDS011;31270;48.328;10.096;2023-05-14T12:35:41;6.30;;;5.70;;
45548;SDS011;31270;48.328;10.096;2023-05-14T12:38:07;7.95;;;5.38;;
45548;SDS011;31270;48.328;10.096;2023-05-14T12:40:33;6.70;;;5.40;;
45548;SDS011;31270;48.328;10.096;2023-05-14T12:42:58;7.65;;;5.90;;
45548;SDS011;31270;48.328;10.096;2023-05-14T12:45:24;6.65;;;5.93;;
45548;SDS011;31270;48.328;10.096;2023-05-14T12:47:50;6.60;;;5.32;;
45548;SDS011;31270;48.328;10.096;2023-05-14T12:50:16;6.40;;;5.30;;
45548;SDS011;31270;48.328;10.096;2023-05-14T12:52:41;6.03;;;5.43;;
45548;SDS011;31270;48.328;10.096;2023-05-14T12:55:08;5.53;;;4.95;;
45548;SDS011;31270;48.328;10.096;2023-05-14T12:57:33;8.75;;;5.15;;
45548;SDS011;31270;48.328;10.096;2023-05-14T13:00:00;6.07;;;4.70;;
45548;SDS011;31270;48.328;10.096;2023-05-14T13:02:25;4.95;;;4.47;;
45548;SDS011;31270;48.328;10.096;2023-05-14T13:04:51;5.18;;;4.68;;
45548;SDS011;31270;48.328;10.096;2023-05-14T13:07:18;4.93;;;4.40;;
45548;SDS011;31270;48.328;10.096;2023-05-14T13:09:44;5.13;;;4.35;;
45548;SDS011;31270;48.328;10.096;2023-05-14T13:12:09;4.45;;;4.05;;
45548;SDS011;31270;48.328;10.096;2023-05-14T13:14:35;5.35;;;4.45;;
45548;SDS011;31270;48.328;10.096;2023-05-14T13:17:01;5.30;;;4.80;;
45548;SDS011;31270;48.328;10.096;2023-05-14T13:19:27;5.25;;;4.75;;
45548;SDS011;31270;48.328;10.096;2023-05-14T13:21:52;5.32;;;4.82;;
45548;SDS011;31270;48.328;10.096;2023-05-14T13:24:18;5.43;;;4.85;;
45548;SDS011;31270;48.328;10.096;2023-05-14T13:26:43;6.38;;;4.57;;
45548;SDS011;31270;48.328;10.096;2023-05-14T13:29:09;6.28;;;5.68;;
45548;SDS011;31270;48.328;10.096;2023-05-14T13:31:36;5.90;;;5.30;;
45548;SDS011;31270;48.328;10.096;2023-05-14T13:34:01;6.28;;;5.68;;
45548;SDS011;31270;48.328;10.096;2023-05-14T13:36:27;6.25;;;5.65;;
45548;SDS011;31270;48.328;10.096;2023-05-14T13:38:52;6.32;;;5.72;;
45548;SDS011;31270;48.328;10.096;2023-05-14T13:41:18;6.45;;;5.80;;
45548;SDS011;31270;48.328;10.096;2023-05-14T13:43:44;5.55;;;5.03;;
45548;SDS011;31270;48.328;10.096;2023-05-14T13:46:09;5.28;;;4.78;;
45548;SDS011;31270;48.328;10.096;2023-05-14T13:48:35;4.85;;;4.40;;
45548;SDS011;31270;48.328;10.096;2023-05-14T13:51:01;2.83;;;2.53;;
45548;SDS011;31270;48.328;10.096;2023-05-14T13:53:27;2.67;;;2.33;;
45548;SDS011;31270;48.328;10.096;2023-05-14T13:55:53;2.72;;;2.53;;
45548;SDS011;31270;48.328;10.096;2023-05-14T13:58:26;3.83;;;2.80;;
45548;SDS011;31270;48.328;10.096;2023-05-14T14:00:52;2.88;;;2.58;;
45548;SDS011;31270;48.328;10.096;2023-05-14T14:03:18;3.63;;;3.30;;
45548;SDS011;31270;48.328;10.096;2023-05-14T14:05:44;3.70;;;3.03;;
45548;SDS011;31270;48.328;10.096;2023-05-14T14:08:10;4.22;;;3.83;;
45548;SDS011;31270;48.328;10.096;2023-05-14T14:10:35;3.78;;;3.42;;
45548;SDS011;31270;48.328;10.096;2023-05-14T14:13:03;3.40;;;3.00;;
45548;SDS011;31270;48.328;10.096;2023-05-14T14:15:29;3.80;;;3.42;;
45548;SDS011;31270;48.328;10.096;2023-05-14T14:17:54;5.50;;;3.53;;
45548;SDS011;31270;48.328;10.096;2023-05-14T14:20:20;3.75;;;3.42;;
45548;SDS011;31270;48.328;10.096;2023-05-14T14:22:46;4.07;;;3.63;;
45548;SDS011;31270;48.328;10.096;2023-05-14T14:25:11;3.85;;;3.47;;